createdAt,value
2018-08-25T00:00:59.343Z,99515.47
2018-08-25T00:03:32.817Z,99507.31
2018-08-25T00:06:08.379Z,99506.70
2018-08-25T00:08:41.104Z,99498.22
2018-08-25T00:11:14.224Z,99492.16
2018-08-25T00:13:47.147Z,99493.98
2018-08-25T00:16:19.681Z,99487.02
2018-08-25T00:18:53.961Z,99484.61
2018-08-25T00:21:26.887Z,99483.11
2018-08-25T00:23:59.500Z,99471.48
2018-08-25T00:26:32.025Z,99473.80
2018-08-25T00:29:04.806Z,99472.94
2018-08-25T00:31:37.843Z,99472.48
2018-08-25T00:34:11.269Z,99464.17
2018-08-25T00:36:44.940Z,99459.28
2018-08-25T00:39:18.214Z,99453.65
2018-08-25T00:41:51.692Z,99457.31
2018-08-25T00:44:25.453Z,99448.95
2018-08-25T00:46:57.933Z,99448.27
2018-08-25T00:49:30.407Z,99442.22
2018-08-25T00:52:03.393Z,99437.66
2018-08-25T00:54:36.681Z,99435.63
2018-08-25T00:57:09.737Z,99438.58
2018-08-25T00:59:43.655Z,99429.84
2018-08-25T01:02:16.340Z,99433.89
2018-08-25T01:04:50.900Z,99431.56
2018-08-25T01:07:23.920Z,99421.93
2018-08-25T01:09:56.545Z,99425.27
2018-08-25T01:12:29.037Z,99421.95
2018-08-25T01:15:03.389Z,99417.95
2018-08-25T01:17:36.194Z,99416.13
2018-08-25T01:20:08.789Z,99413.80
2018-08-25T01:22:42.969Z,99409.75
2018-08-25T01:25:16.530Z,99406.59
2018-08-25T01:27:49.081Z,99405.41
2018-08-25T01:30:23.349Z,99405.13
2018-08-25T01:32:56.607Z,99398.14
2018-08-25T01:35:30.976Z,99397.65
2018-08-25T01:38:06.424Z,99389.44
2018-08-25T01:40:39.461Z,99385.41
2018-08-25T01:43:12.411Z,99382.63
2018-08-25T01:45:45.826Z,99377.02
2018-08-25T01:48:18.387Z,99373.16
2018-08-25T01:50:51.534Z,99364.64
2018-08-25T01:53:24.420Z,99360.39
2018-08-25T01:55:56.922Z,99360.55
2018-08-25T01:58:29.840Z,99356.33
2018-08-25T02:01:02.960Z,99353.84
2018-08-25T02:03:35.645Z,99352.11
2018-08-25T02:06:08.532Z,99345.17
2018-08-25T02:08:42.253Z,99338.05
2018-08-25T02:11:15.812Z,99331.69
2018-08-25T02:13:48.273Z,99324.85
2018-08-25T02:16:21.712Z,99326.38
2018-08-25T02:18:54.939Z,99327.45
2018-08-25T02:21:27.417Z,99321.52
2018-08-25T02:24:01.273Z,99324.31
2018-08-25T02:26:33.765Z,99322.24
2018-08-25T02:29:06.157Z,99314.89
2018-08-25T02:31:39.788Z,99311.94
2018-08-25T02:34:12.366Z,99307.09
2018-08-25T02:36:44.714Z,99298.94
2018-08-25T02:39:17.531Z,99296.66
2018-08-25T02:41:50.101Z,99297.37
2018-08-25T02:44:22.948Z,99299.27
2018-08-25T02:46:55.888Z,99303.80
2018-08-25T02:49:28.441Z,99300.59
2018-08-25T02:52:01.488Z,99297.43
2018-08-25T02:54:34.464Z,99302.40
2018-08-25T02:57:06.928Z,99296.34
2018-08-25T02:59:39.647Z,99291.20
2018-08-25T03:02:13.417Z,99287.86
2018-08-25T03:04:46.251Z,99288.36
2018-08-25T03:07:18.728Z,99290.70
2018-08-25T03:09:51.570Z,99294.72
2018-08-25T03:12:24.049Z,99296.27
2018-08-25T03:14:58.440Z,99306.97
2018-08-25T03:17:31.556Z,99298.53
2018-08-25T03:20:04.349Z,99317.69
2018-08-25T03:22:36.896Z,99324.08
2018-08-25T03:25:12.743Z,99325.89
2018-08-25T03:27:45.335Z,99325.95
2018-08-25T03:30:18.568Z,99318.33
2018-08-25T03:32:54.396Z,99313.68
2018-08-25T03:35:26.923Z,99306.58
2018-08-25T03:37:59.721Z,99303.61
2018-08-25T03:40:33.432Z,99297.77
2018-08-25T03:43:05.908Z,99294.41
2018-08-25T03:45:38.469Z,99285.19
2018-08-25T03:48:11.204Z,99282.23
2018-08-25T03:50:45.383Z,99276.66
2018-08-25T03:53:18.032Z,99286.09
2018-08-25T03:55:51.128Z,99283.76
2018-08-25T03:58:24.284Z,99292.36
2018-08-25T04:00:56.802Z,99297.28
2018-08-25T04:03:29.625Z,99314.46
2018-08-25T04:06:02.146Z,99308.28
2018-08-25T04:08:34.552Z,99316.39
2018-08-25T04:11:07.560Z,99314.58
2018-08-25T04:13:40.118Z,99302.09
2018-08-25T04:16:12.735Z,99295.37
2018-08-25T04:18:46.517Z,99293.77
2018-08-25T04:21:19.132Z,99298.77
2018-08-25T04:23:52.368Z,99296.11
2018-08-25T04:26:25.303Z,99286.45
2018-08-25T04:28:58.100Z,99289.67
2018-08-25T04:31:30.600Z,99293.64
2018-08-25T04:34:03.630Z,99297.86
2018-08-25T04:36:36.434Z,99295.84
2018-08-25T04:39:10.907Z,99300.48
2018-08-25T04:41:44.028Z,99298.80
2018-08-25T04:44:17.057Z,99297.09
2018-08-25T04:46:49.544Z,99296.11
2018-08-25T04:49:23.361Z,99301.64
2018-08-25T04:51:56.836Z,99293.92
2018-08-25T04:54:29.296Z,99297.11
2018-08-25T04:57:08.650Z,99298.99
2018-08-25T04:59:42.032Z,99302.84
2018-08-25T05:02:14.428Z,99302.89
2018-08-25T05:04:47.246Z,99299.47
2018-08-25T05:07:20.042Z,99304.84
2018-08-25T05:09:52.865Z,99314.91
2018-08-25T05:12:25.805Z,99321.05
2018-08-25T05:14:59.904Z,99313.48
2018-08-25T05:17:33.935Z,99342.21
2018-08-25T05:20:07.168Z,99332.61
2018-08-25T05:22:39.748Z,99336.55
2018-08-25T05:25:12.108Z,99335.50
2018-08-25T05:27:45.884Z,99333.22
2018-08-25T05:30:18.601Z,99337.16
2018-08-25T05:32:51.094Z,99338.21
2018-08-25T05:35:23.845Z,99337.43
2018-08-25T05:37:56.229Z,99337.42
2018-08-25T05:40:28.853Z,99342.37
2018-08-25T05:43:01.597Z,99350.48
2018-08-25T05:45:33.996Z,99345.95
2018-08-25T05:48:06.566Z,99349.06
2018-08-25T05:50:40.597Z,99351.92
2018-08-25T05:53:14.100Z,99357.28
2018-08-25T05:55:46.564Z,99357.71
2018-08-25T05:58:24.572Z,99346.55
2018-08-25T06:00:57.940Z,99355.52
2018-08-25T06:03:31.077Z,99359.44
2018-08-25T06:06:05.400Z,99363.04
2018-08-25T06:08:38.017Z,99359.77
2018-08-25T06:11:10.574Z,99367.98
2018-08-25T06:13:45.594Z,99365.16
2018-08-25T06:16:19.549Z,99366.11
2018-08-25T06:18:52.852Z,99368.77
2018-08-25T06:21:28.952Z,99373.27
2018-08-25T06:24:03.104Z,99374.86
2018-08-25T06:26:35.720Z,99377.69
2018-08-25T06:29:09.763Z,99383.80
2018-08-25T06:31:42.145Z,99386.44
2018-08-25T06:34:14.771Z,99395.52
2018-08-25T06:36:47.595Z,99393.14
2018-08-25T06:39:28.096Z,99391.60
2018-08-25T06:42:00.692Z,99394.66
2018-08-25T06:44:34.530Z,99391.88
2018-08-25T06:47:08.733Z,99398.08
2018-08-25T06:49:43.246Z,99403.04
2018-08-25T06:52:16.133Z,99394.66
2018-08-25T06:54:48.522Z,99399.70
2018-08-25T06:57:21.847Z,99397.74
2018-08-25T06:59:55.950Z,99401.84
2018-08-25T07:02:28.416Z,99396.72
2018-08-25T07:05:00.961Z,99398.77
2018-08-25T07:07:34.204Z,99398.31
2018-08-25T07:10:06.935Z,99395.39
2018-08-25T07:12:39.564Z,99398.39
2018-08-25T07:15:14.424Z,99401.61
2018-08-25T07:17:48.452Z,99412.58
2018-08-25T07:20:20.924Z,99409.52
2018-08-25T07:22:56.795Z,99407.58
2018-08-25T07:25:29.428Z,99409.91
2018-08-25T07:28:02.861Z,99407.72
2018-08-25T07:30:35.713Z,99412.67
2018-08-25T07:33:09.110Z,99410.73
2018-08-25T07:35:44.968Z,99418.65
2018-08-25T07:38:18.920Z,99422.48
2018-08-25T07:40:52.430Z,99421.27
2018-08-25T07:43:25.774Z,99418.14
2018-08-25T07:46:04.357Z,99428.03
2018-08-25T07:48:38.747Z,99419.25
2018-08-25T07:51:12.454Z,99428.23
2018-08-25T07:53:48.296Z,99434.92
2018-08-25T07:56:22.029Z,99438.06
2018-08-25T07:58:54.553Z,99432.11
2018-08-25T08:01:28.958Z,99434.45
2018-08-25T08:04:01.506Z,99439.61
2018-08-25T08:06:34.047Z,99445.79
2018-08-25T08:09:09.969Z,99447.86
2018-08-25T08:11:43.513Z,99449.35
2018-08-25T08:14:18.464Z,99449.38
2018-08-25T08:16:52.163Z,99453.48
2018-08-25T08:19:26.654Z,99453.90
2018-08-25T08:21:59.908Z,99455.53
2018-08-25T08:24:33.597Z,99461.29
2018-08-25T08:27:07.572Z,99457.02
2018-08-25T08:29:41.380Z,99457.43
2018-08-25T08:32:17.606Z,99463.53
2018-08-25T08:34:52.330Z,99459.87
2018-08-25T08:37:27.000Z,99463.88
2018-08-25T08:40:00.763Z,99469.27
2018-08-25T08:42:34.573Z,99462.02
2018-08-25T08:45:09.033Z,99473.34
2018-08-25T08:47:43.988Z,99477.40
2018-08-25T08:50:20.488Z,99473.67
2018-08-25T08:52:54.857Z,99476.22
2018-08-25T08:55:28.979Z,99474.80
2018-08-25T08:58:03.328Z,99475.91
2018-08-25T09:00:38.831Z,99481.00
2018-08-25T09:03:12.486Z,99478.72
2018-08-25T09:05:46.334Z,99484.21
2018-08-25T09:08:23.531Z,99486.36
2018-08-25T09:10:58.697Z,99497.37
2018-08-25T09:13:32.828Z,99495.12
2018-08-25T09:16:06.311Z,99496.34
2018-08-25T09:18:40.426Z,99493.19
2018-08-25T09:21:14.488Z,99494.03
2018-08-25T09:23:49.552Z,99507.97
2018-08-25T09:26:23.157Z,99498.19
2018-08-25T09:29:00.514Z,99506.29
2018-08-25T09:31:35.979Z,99512.55
2018-08-25T09:34:10.036Z,99516.52
2018-08-25T09:36:45.248Z,99521.87
2018-08-25T09:39:18.736Z,99518.67
2018-08-25T09:41:52.576Z,99519.06
2018-08-25T09:44:27.000Z,99531.31
2018-08-25T09:46:59.854Z,99532.14
2018-08-25T09:49:32.585Z,99518.03
2018-08-25T09:52:06.755Z,99523.76
2018-08-25T09:54:42.591Z,99519.48
2018-08-25T09:57:20.364Z,99522.28
2018-08-25T09:59:54.298Z,99520.95
2018-08-25T10:02:27.557Z,99522.83
2018-08-25T10:05:00.578Z,99528.63
2018-08-25T10:07:34.864Z,99536.55
2018-08-25T10:10:08.572Z,99529.33
2018-08-25T10:12:41.082Z,99541.89
2018-08-25T10:15:16.848Z,99535.67
2018-08-25T10:17:50.248Z,99522.78
2018-08-25T10:20:23.898Z,99528.94
2018-08-25T10:22:56.746Z,99534.00
2018-08-25T10:25:31.169Z,99528.55
2018-08-25T10:28:05.337Z,99538.17
2018-08-25T10:30:38.247Z,99539.89
2018-08-25T10:33:10.690Z,99530.61
2018-08-25T10:35:44.288Z,99535.53
2018-08-25T10:38:18.263Z,99540.90
2018-08-25T10:40:55.284Z,99539.02
2018-08-25T10:43:28.489Z,99530.89
2018-08-25T10:46:01.320Z,99535.44
2018-08-25T10:48:34.902Z,99525.23
2018-08-25T10:51:10.044Z,99535.94
2018-08-25T10:53:43.344Z,99538.70
2018-08-25T10:56:16.704Z,99534.73
2018-08-25T10:58:50.129Z,99538.16
2018-08-25T11:01:23.686Z,99538.46
2018-08-25T11:03:57.103Z,99552.27
2018-08-25T11:06:34.316Z,99544.55
2018-08-25T11:09:13.353Z,99544.27
2018-08-25T11:11:46.113Z,99544.99
2018-08-25T11:14:20.769Z,99550.21
2018-08-25T11:16:53.581Z,99550.30
2018-08-25T11:19:28.312Z,99535.16
2018-08-25T11:22:03.383Z,99555.65
2018-08-25T11:24:36.762Z,99547.41
2018-08-25T11:27:10.313Z,99554.88
2018-08-25T11:29:44.191Z,99541.97
2018-08-25T11:32:16.787Z,99545.50
2018-08-25T11:34:53.356Z,99546.84
2018-08-25T11:37:33.320Z,99554.31
2018-08-25T11:40:06.098Z,99546.09
2018-08-25T11:42:43.966Z,99550.63
2018-08-25T11:45:16.678Z,99565.53
2018-08-25T11:47:49.224Z,99553.64
2018-08-25T11:50:21.754Z,99554.87
2018-08-25T11:52:54.331Z,99558.70
2018-08-25T11:55:27.869Z,99548.91
2018-08-25T11:58:01.076Z,99554.41
2018-08-25T12:00:37.322Z,99544.44
2018-08-25T12:03:10.185Z,99551.48
2018-08-25T12:05:44.937Z,99554.13
2018-08-25T12:08:19.457Z,99561.66
2018-08-25T12:10:53.035Z,99560.21
2018-08-25T12:13:26.857Z,99571.49
2018-08-25T12:16:01.026Z,99563.66
2018-08-25T12:18:34.673Z,99570.49
2018-08-25T12:21:07.751Z,99566.86
2018-08-25T12:23:42.349Z,99563.45
2018-08-25T12:26:17.777Z,99564.78
2018-08-25T12:28:51.037Z,99568.44
2018-08-25T12:31:26.750Z,99561.35
2018-08-25T12:34:03.168Z,99560.58
2018-08-25T12:36:38.113Z,99563.13
2018-08-25T12:39:12.788Z,99567.44
2018-08-25T12:41:46.318Z,99569.43
2018-08-25T12:44:20.018Z,99576.23
2018-08-25T12:46:53.916Z,99577.38
2018-08-25T12:49:27.275Z,99577.12
2018-08-25T12:52:02.604Z,99593.30
2018-08-25T12:54:39.021Z,99598.47
2018-08-25T12:57:13.554Z,99602.12
2018-08-25T12:59:47.102Z,99592.70
2018-08-25T13:02:21.829Z,99595.05
2018-08-25T13:04:57.269Z,99597.77
2018-08-25T13:07:30.543Z,99604.35
2018-08-25T13:10:09.984Z,99611.52
2018-08-25T13:12:42.436Z,99606.98
2018-08-25T13:15:18.237Z,99604.37
2018-08-25T13:17:51.146Z,99612.09
2018-08-25T13:20:25.876Z,99603.97
2018-08-25T13:22:59.687Z,99604.27
2018-08-25T13:25:34.056Z,99598.20
2018-08-25T13:28:18.265Z,99590.81
2018-08-25T13:30:53.632Z,99596.95
2018-08-25T13:33:28.190Z,99602.23
2018-08-25T13:36:03.018Z,99592.95
2018-08-25T13:38:38.713Z,99595.24
2018-08-25T13:41:13.643Z,99605.64
2018-08-25T13:43:47.806Z,99613.95
2018-08-25T13:46:21.737Z,99608.73
2018-08-25T13:48:57.122Z,99620.94
2018-08-25T13:51:30.064Z,99632.65
2018-08-25T13:54:04.149Z,99623.28
2018-08-25T13:56:54.611Z,99634.77
2018-08-25T13:59:34.832Z,99636.32
2018-08-25T14:02:16.289Z,99635.72
2018-08-25T14:04:50.958Z,99649.44
2018-08-25T14:07:25.534Z,99641.02
2018-08-25T14:10:06.383Z,99636.07
2018-08-25T14:12:41.219Z,99641.81
2018-08-25T14:15:15.273Z,99638.25
2018-08-25T14:17:49.873Z,99642.65
2018-08-25T14:20:23.313Z,99638.95
2018-08-25T14:22:59.376Z,99647.95
2018-08-25T14:25:33.240Z,99651.45
2018-08-25T14:28:08.823Z,99648.98
2018-08-25T14:30:42.747Z,99651.65
2018-08-25T14:33:19.266Z,99649.03
2018-08-25T14:35:55.677Z,99646.05
2018-08-25T14:38:31.424Z,99650.17
2018-08-25T14:41:04.434Z,99659.57
2018-08-25T14:43:36.964Z,99654.19
2018-08-25T14:46:11.470Z,99657.80
2018-08-25T14:48:46.130Z,99661.39
2018-08-25T14:51:18.645Z,99662.90
2018-08-25T14:53:51.469Z,99671.72
2018-08-25T14:56:27.397Z,99658.25
2018-08-25T14:59:08.524Z,99669.38
2018-08-25T15:01:42.790Z,99666.33
2018-08-25T15:04:17.358Z,99675.63
2018-08-25T15:06:51.433Z,99680.33
2018-08-25T15:09:28.376Z,99681.98
2018-08-25T15:12:02.987Z,99692.64
2018-08-25T15:14:38.686Z,99698.23
2018-08-25T15:17:13.369Z,99698.36
2018-08-25T15:19:49.645Z,99702.55
2018-08-25T15:22:25.971Z,99703.45
2018-08-25T15:25:01.491Z,99703.23
2018-08-25T15:27:36.900Z,99708.77
2018-08-25T15:30:16.301Z,99709.43
2018-08-25T15:32:49.589Z,99718.84
2018-08-25T15:35:22.041Z,99718.53
2018-08-25T15:37:58.216Z,99727.27
2018-08-25T15:40:33.586Z,99719.90
2018-08-25T15:43:07.761Z,99722.60
2018-08-25T15:45:42.313Z,99726.17
2018-08-25T15:48:34.493Z,99726.83
2018-08-25T15:51:18.713Z,99732.05
2018-08-25T15:53:53.049Z,99734.80
2018-08-25T15:56:27.272Z,99725.36
2018-08-25T16:01:25.342Z,99741.70
2018-08-25T16:04:00.207Z,99733.86
2018-08-25T16:06:33.762Z,99737.02
2018-08-25T16:09:09.816Z,99733.57
2018-08-25T16:11:45.520Z,99737.46
2018-08-25T16:14:39.828Z,99738.36
2018-08-25T16:17:21.565Z,99737.25
2018-08-25T16:19:55.203Z,99746.16
2018-08-25T16:22:30.893Z,99747.48
2018-08-25T16:25:06.544Z,99753.53
2018-08-25T16:27:39.829Z,99757.75
2018-08-25T16:30:15.141Z,99755.92
2018-08-25T16:32:48.609Z,99756.16
2018-08-25T16:35:21.620Z,99771.94
2018-08-25T16:37:55.704Z,99777.82
2018-08-25T16:40:36.417Z,99771.61
2018-08-25T16:43:12.719Z,99767.87
2018-08-25T16:45:55.289Z,99768.07
2018-08-25T16:48:28.558Z,99765.56
2018-08-25T16:51:02.319Z,99765.09
2018-08-25T16:53:36.240Z,99762.61
2018-08-25T16:56:09.717Z,99759.55
2018-08-25T16:58:44.786Z,99763.84
2018-08-25T17:01:19.800Z,99761.05
2018-08-25T17:03:55.482Z,99770.53
2018-08-25T17:06:29.683Z,99770.89
2018-08-25T17:09:07.783Z,99773.73
2018-08-25T17:11:41.356Z,99778.27
2018-08-25T17:14:15.208Z,99779.78
2018-08-25T17:16:51.232Z,99778.89
2018-08-25T17:19:25.641Z,99781.30
2018-08-25T17:21:58.281Z,99796.33
2018-08-25T17:24:35.190Z,99789.59
2018-08-25T17:27:09.045Z,99796.56
2018-08-25T17:29:45.365Z,99800.40
2018-08-25T17:32:18.565Z,99800.07
2018-08-25T17:34:51.813Z,99801.63
2018-08-25T17:37:25.579Z,99814.66
2018-08-25T17:40:05.632Z,99815.09
2018-08-25T17:42:47.341Z,99815.99
2018-08-25T17:45:28.401Z,99824.26
2018-08-25T17:48:05.759Z,99827.48
2018-08-25T17:50:57.777Z,99834.77
2018-08-25T17:53:45.138Z,99838.97
2018-08-25T17:56:24.595Z,99847.30
2018-08-25T17:59:04.167Z,99855.82
2018-08-25T18:01:38.778Z,99868.00
2018-08-25T18:04:14.850Z,99866.20
2018-08-25T18:06:52.045Z,99872.11
2018-08-25T18:09:33.675Z,99868.28
2018-08-25T18:12:11.067Z,99868.12
2018-08-25T18:14:48.154Z,99868.55
2018-08-25T18:17:34.766Z,99870.89
2018-08-25T18:20:11.274Z,99872.80
2018-08-25T18:22:48.440Z,99878.08
2018-08-25T18:25:21.257Z,99882.08
2018-08-25T18:28:01.887Z,99886.76
2018-08-25T18:30:35.757Z,99895.55
2018-08-25T18:33:11.397Z,99899.24
2018-08-25T18:35:45.467Z,99901.27
2018-08-25T18:38:18.216Z,99908.22
2018-08-25T18:40:51.422Z,99914.80
2018-08-25T18:43:23.990Z,99913.41
2018-08-25T18:46:00.006Z,99916.73
2018-08-25T18:48:33.619Z,99918.73
2018-08-25T18:51:07.105Z,99916.78
2018-08-25T18:53:40.767Z,99916.76
2018-08-25T18:56:14.685Z,99925.87
2018-08-25T18:58:55.317Z,99929.17
2018-08-25T19:01:29.267Z,99930.72
2018-08-25T19:04:02.069Z,99933.38
2018-08-25T19:06:36.947Z,99930.33
2018-08-25T19:09:13.301Z,99933.97
2018-08-25T19:11:46.669Z,99936.83
2018-08-25T19:14:23.966Z,99935.83
2018-08-25T19:17:00.713Z,99940.00
2018-08-25T19:19:34.281Z,99947.60
2018-08-25T19:22:17.963Z,99951.95
2018-08-25T19:24:52.217Z,99955.77
2018-08-25T19:27:25.119Z,99957.63
2018-08-25T19:29:59.511Z,99959.75
2018-08-25T19:32:34.653Z,99965.51
2018-08-25T19:35:13.031Z,99966.05
2018-08-25T19:37:49.121Z,99971.14
2018-08-25T19:40:35.229Z,99968.94
2018-08-25T19:43:07.774Z,99966.75
2018-08-25T19:45:40.332Z,99973.31
2018-08-25T19:48:13.840Z,99972.92
2018-08-25T19:50:50.057Z,99972.56
2018-08-25T19:53:25.329Z,99972.37
2018-08-25T19:56:00.715Z,99982.23
2018-08-25T19:58:41.922Z,99981.61
2018-08-25T20:01:14.938Z,99981.48
2018-08-25T20:03:50.710Z,99983.95
2018-08-25T20:06:25.122Z,99987.70
2018-08-25T20:08:58.964Z,99991.05
2018-08-25T20:11:33.830Z,99994.41
2018-08-25T20:14:06.824Z,99996.55
2018-08-25T20:16:40.631Z,99992.89
2018-08-25T20:19:15.312Z,99994.67
2018-08-25T20:21:50.429Z,99995.86
2018-08-25T20:24:23.530Z,99997.95
2018-08-25T20:27:00.108Z,100000.30
2018-08-25T20:29:34.523Z,100005.26
2018-08-25T20:32:28.179Z,100007.13
2018-08-25T20:35:03.647Z,100009.30
2018-08-25T20:37:44.246Z,100010.13
2018-08-25T20:40:17.609Z,100012.25
2018-08-25T20:42:52.003Z,100019.67
2018-08-25T20:45:25.943Z,100019.20
2018-08-25T20:47:59.327Z,100029.01
2018-08-25T20:50:43.311Z,100024.45
2018-08-25T20:53:18.833Z,100026.40
2018-08-25T20:55:58.646Z,100025.80
2018-08-25T20:58:34.283Z,100028.42
2018-08-25T21:01:07.586Z,100030.21
2018-08-25T21:03:42.965Z,100033.05
2018-08-25T21:06:20.469Z,100030.68
2018-08-25T21:08:55.271Z,100027.06
2018-08-25T21:11:38.363Z,100026.78
2018-08-25T21:14:15.516Z,100023.03
2018-08-25T21:16:50.837Z,100025.23
2018-08-25T21:19:27.585Z,100026.20
2018-08-25T21:22:05.881Z,100029.64
2018-08-25T21:24:42.487Z,100031.59
2018-08-25T21:27:16.230Z,100028.44
2018-08-25T21:29:48.796Z,100027.07
2018-08-25T21:32:22.208Z,100032.48
2018-08-25T21:34:55.233Z,100035.55
2018-08-25T21:37:27.810Z,100038.65
2018-08-25T21:40:04.700Z,100037.11
2018-08-25T21:42:37.872Z,100028.93
2018-08-25T21:45:13.425Z,100024.18
2018-08-25T21:47:47.540Z,100024.66
2018-08-25T21:50:26.177Z,100023.55
2018-08-25T21:53:00.933Z,100027.34
2018-08-25T21:55:35.728Z,100028.66
2018-08-25T21:58:10.888Z,100029.77
2018-08-25T22:00:50.869Z,100037.09
2018-08-25T22:03:45.357Z,100040.02
2018-08-25T22:06:17.838Z,100041.98
2018-08-25T22:09:01.136Z,100042.58
2018-08-25T22:11:38.624Z,100042.30
2018-08-25T22:14:12.185Z,100038.49
2018-08-25T22:16:48.019Z,100029.37
2018-08-25T22:19:25.604Z,100035.88
2018-08-25T22:21:59.636Z,100033.06
2018-08-25T22:24:35.842Z,100037.89
2018-08-25T22:27:11.544Z,100040.52
2018-08-25T22:29:45.920Z,100042.33
2018-08-25T22:32:20.601Z,100047.93
2018-08-25T22:34:55.398Z,100046.31
2018-08-25T22:37:27.999Z,100042.64
2018-08-25T22:40:03.320Z,100041.55
2018-08-25T22:42:36.597Z,100041.11
2018-08-25T22:45:12.349Z,100043.60
2018-08-25T22:47:49.325Z,100047.45
2018-08-25T22:50:22.669Z,100041.85
2018-08-25T22:52:58.587Z,100039.44
2018-08-25T22:55:32.907Z,100039.84
2018-08-25T22:58:08.450Z,100042.82
2018-08-25T23:00:47.029Z,100049.84
2018-08-25T23:03:21.589Z,100049.26
2018-08-25T23:05:54.221Z,100055.84
2018-08-25T23:08:29.171Z,100058.47
2018-08-25T23:11:03.348Z,100056.74
2018-08-25T23:13:37.351Z,100060.19
2018-08-25T23:16:13.224Z,100063.55
2018-08-25T23:18:46.631Z,100063.70
2018-08-25T23:21:20.146Z,100069.44
2018-08-25T23:23:54.708Z,100062.81
2018-08-25T23:26:28.259Z,100070.55
2018-08-25T23:29:00.947Z,100065.30
2018-08-25T23:31:33.697Z,100064.91
2018-08-25T23:34:11.000Z,100068.69
2018-08-25T23:36:44.201Z,100067.97
2018-08-25T23:39:19.036Z,100071.49
2018-08-25T23:41:53.288Z,100067.23
2018-08-25T23:46:15.313Z,100070.41
2018-08-25T23:48:48.210Z,100070.22
2018-08-25T23:51:21.693Z,100068.61
2018-08-25T23:53:55.150Z,100068.80
2018-08-25T23:56:33.135Z,100072.95
2018-08-25T23:59:05.960Z,100077.26
